createdAt,value
2017-05-15T00:00:23.282Z,4
2017-05-15T00:10:11.672Z,4
2017-05-15T00:20:11.660Z,4
2017-05-15T00:40:11.656Z,4
2017-05-15T01:00:35.667Z,4
2017-05-15T01:10:28.960Z,4
2017-05-15T01:20:11.665Z,4
2017-05-15T01:40:17.893Z,4
2017-05-15T01:50:27.175Z,4
2017-05-15T02:00:11.659Z,4
2017-05-15T02:10:11.632Z,4
2017-05-15T02:30:13.743Z,4
2017-05-15T02:40:11.627Z,4
2017-05-15T02:50:11.652Z,4
2017-05-15T03:10:15.448Z,24
2017-05-15T03:20:11.642Z,64
2017-05-15T03:30:11.639Z,176
2017-05-15T03:40:11.645Z,384
2017-05-15T03:50:11.633Z,720
2017-05-15T04:00:14.758Z,1340
2017-05-15T04:10:22.892Z,2112
2017-05-15T04:20:13.725Z,2364
2017-05-15T04:30:11.628Z,2540
2017-05-15T04:40:23.025Z,3648
2017-05-15T04:50:28.412Z,4068
2017-05-15T05:00:11.645Z,5436
2017-05-15T05:10:25.432Z,3792
2017-05-15T05:30:23.490Z,4808
2017-05-15T05:40:17.406Z,4692
2017-05-15T05:50:28.601Z,4680
2017-05-15T06:00:13.769Z,4952
2017-05-15T06:10:12.709Z,5720
2017-05-15T06:20:11.616Z,7708
2017-05-15T06:30:11.612Z,21824
2017-05-15T06:40:12.647Z,58432
2017-05-15T06:50:11.628Z,56320
2017-05-15T07:00:13.729Z,58880
2017-05-15T07:10:11.631Z,52896
2017-05-15T07:20:16.090Z,70848
2017-05-15T07:30:14.740Z,67808
2017-05-15T07:40:11.642Z,65152
2017-05-15T07:50:11.644Z,68032
2017-05-15T08:00:11.665Z,70048
2017-05-15T08:10:11.641Z,68448
2017-05-15T08:20:13.687Z,84704
2017-05-15T08:30:11.765Z,90240
2017-05-15T08:40:16.704Z,87200
2017-05-15T09:00:34.248Z,8444
2017-05-15T09:20:28.930Z,7860
2017-05-15T09:30:11.692Z,7156
2017-05-15T09:40:11.780Z,7740
2017-05-15T10:00:17.698Z,7524
2017-05-15T10:10:21.933Z,8824
2017-05-15T10:30:11.695Z,10000
2017-05-15T10:40:11.720Z,10664
2017-05-15T10:50:36.882Z,6484
2017-05-15T11:00:17.269Z,7044
2017-05-15T11:10:25.153Z,6468
2017-05-15T11:20:11.687Z,5184
2017-05-15T11:40:23.514Z,5608
2017-05-15T11:50:11.704Z,4328
2017-05-15T12:00:11.725Z,4120
2017-05-15T12:20:11.705Z,5200
2017-05-15T12:30:16.934Z,5504
2017-05-15T12:40:16.656Z,6472
2017-05-15T12:50:11.743Z,5544
2017-05-15T13:00:16.800Z,6112
2017-05-15T13:10:11.715Z,8052
2017-05-15T13:20:27.158Z,6724
2017-05-15T13:30:11.708Z,8368
2017-05-15T13:50:12.737Z,5964
2017-05-15T14:00:11.741Z,5180
2017-05-15T14:10:11.739Z,4576
2017-05-15T14:20:28.971Z,4376
2017-05-15T14:40:30.921Z,4264
2017-05-15T14:50:24.027Z,3852
2017-05-15T15:10:11.750Z,3860
2017-05-15T15:30:11.783Z,3956
2017-05-15T15:40:11.758Z,3892
2017-05-15T15:50:11.773Z,3904
2017-05-15T16:00:11.742Z,3860
2017-05-15T16:10:11.775Z,3744
2017-05-15T16:20:11.770Z,3580
2017-05-15T16:30:11.799Z,3348
2017-05-15T16:40:11.746Z,3368
2017-05-15T16:50:11.815Z,3260
2017-05-15T17:00:11.780Z,3136
2017-05-15T17:10:11.789Z,3120
2017-05-15T17:20:11.827Z,3108
2017-05-15T17:30:11.746Z,3016
2017-05-15T17:40:11.836Z,2624
2017-05-15T17:50:11.792Z,2592
2017-05-15T18:00:11.828Z,2216
2017-05-15T18:10:11.889Z,1872
2017-05-15T18:20:11.823Z,1732
2017-05-15T18:30:11.869Z,1372
2017-05-15T18:40:11.882Z,1072
2017-05-15T18:50:11.857Z,664
2017-05-15T19:00:11.841Z,376
2017-05-15T19:10:12.434Z,180
2017-05-15T19:20:11.834Z,88
2017-05-15T19:30:11.999Z,36
2017-05-15T19:40:11.907Z,8
2017-05-15T19:50:12.656Z,4
2017-05-15T20:00:11.744Z,4
2017-05-15T20:10:11.905Z,0
2017-05-15T20:20:11.946Z,0
2017-05-15T20:30:11.991Z,0
2017-05-15T20:40:13.246Z,0
2017-05-15T20:50:11.783Z,0
2017-05-15T21:00:11.845Z,0
2017-05-15T21:10:11.794Z,0
2017-05-15T21:20:11.771Z,0
2017-05-15T21:30:11.762Z,0
2017-05-15T21:40:12.039Z,0
2017-05-15T21:50:11.749Z,0
2017-05-15T22:00:11.862Z,0
2017-05-15T22:10:11.844Z,0
2017-05-15T22:20:11.760Z,0
2017-05-15T22:30:11.785Z,0
2017-05-15T22:40:11.769Z,0
2017-05-15T22:50:11.840Z,0
2017-05-15T23:00:11.754Z,0
2017-05-15T23:10:11.732Z,0
2017-05-15T23:20:11.721Z,0
2017-05-15T23:30:11.740Z,0
2017-05-15T23:40:11.755Z,0
2017-05-15T23:50:11.754Z,0
